West Miami, Florida
Current Conditions -  °F | °C
As of 11:53 AM on Thursday 27 Nov 2014 (Local Time) from KMIA Reporting Station
Few Clouds Few Clouds  
Wind Chill: 21°   Ceiling: Unl
Heat Index: 21°   Visibility: 10mi
Dew Point: -1°   Wind: 15mph
Humidity: 24%   Direction: 360°N
Pressure: 30.23"   Gusts: 24mph
Location:  25.7365°N, 80.3112°W
Report Text: KMIA 271653Z 36013G21KT 10SM FEW040 FEW150 21/M01 A3023 RMK AO2 SLP237 T02111006
Loading
Personal Weather Stations






























Interactive Weather Map New forecast layout! Learn more

10-Day Weather Forecast

Advertisements
Track Severe Weather on mobile